Meath Environmental Platform

Observations for Trim Patrick St

Time AQI Temp °C Hum % Pres Pa CO μg/m³ H₂S μg/m³ NO μg/m³ NO₂ μg/m³ O₃ μg/m³ SO₂ μg/m³ PM1 μg/m³ PM2.5 μg/m³ PM10 μg/m³
Sunday 2 August 2026
01:23 2 14.7 71 38,449 0.19 5.38 1.71 26.63 28.06 0 5.43 11.58 12.74
01:22 2 14.7 71 38,445 0.19 5.85 1.76 27.6 26.88 0 7.14 11.58 12.74
01:21 2 14.7 71 38,440 0.18 6.16 1.86 28.26 26.11 0 6.29 12.31 13.54
01:20 2 14.8 71 38,434 0.18 5.9 2.05 28.16 26.44 0 4.57 8.71 9.58
01:19 2 14.8 70 38,424 0.18 5.64 1.97 27.5 27.29 0 6.29 10.88 11.97
01:18 2 14.8 70 38,412 0.18 6.27 2.04 28.83 25.72 0 8 12.33 13.56
01:17 2 14.8 70 38,396 0.19 5.75 1.92 27.83 26.87 0 6.29 10.88 11.97
01:16 2 14.8 70 38,374 0.18 5.75 1.93 29.15 25.34 0 6.29 11.61 12.77
01:15 2 14.8 70 38,346 0.19 6.01 1.81 29.49 24.95 0 6.29 10.89 11.98
01:14 2 14.8 70 38,308 0.19 5.98 1.93 29.82 24.56 0 6.29 11.62 12.78
01:13 2 14.8 70 38,258 0.18 5.85 1.83 30.15 24.23 0 5.43 10.18 11.19
01:12 2 14.8 70 38,189 0.18 6.01 1.87 29.82 24.62 0 7.14 12.35 13.58
01:11 2 14.8 70 38,099 0.19 5.9 1.91 30.15 24.21 0 8 13.07 14.37
01:10 2 14.9 70 37,979 0.18 5.85 1.8 29.72 24.94 0 8 12.35 13.58
01:09 2 14.9 70 37,818 0.18 6.14 1.78 29.39 25.38 0 7.14 12.35 13.59
01:03 2 14.9 70 34,845 0.18 6.79 1.56 31.38 23.14 0 6.29 12.38 13.62
00:59 2 15 70 27,034 0.17 6.92 1.32 32.62 21.95 0 5.43 10.24 11.26
00:58 2 14.9 70 24,043 0.17 7.02 1.37 31.72 22.92 0 7.14 10.96 12.06
00:56 2 15 70 17,560 0.17 7.34 1.41 33.61 20.95 0 5.43 9.52 10.47
00:55 2 15 69 13,966 0.17 7.36 1.67 34.28 20.26 0 8 12.41 13.66